Terminal Aerodrome Forecast
Issued by NWS Jackson, KY

Home | Current Version | Previous Version | Text Only | Print | Product List | Glossary On
Versions: 1 2 3 4 5 6 7 8 9 10 11 12 13 14 15 16 17 18 19 20 21
219
FTUS43 KJKL 260527
TAFLOZ
TAF
KLOZ 260527Z 2606/2706 18006KT P6SM OVC100
     FM260900 16006KT 5SM -SHRA OVC030
     FM261300 20010G20KT P6SM VCSH BKN035=

USA.gov is the U.S. government's official web portal to all federal, state and local government web resources and services.